Time;durP1;ratioP1;P1;durP2;ratioP2;P2;SDS_P1;SDS_P2;PMS_P1;PMS_P2;Temp;Humidity;BMP_temperature;BMP_pressure;BME280_temperature;BME280_humidity;BME280_pressure;Samples;Min_cycle;Max_cycle;Signal;HPM_P1;HPM_P2
2020/12/08 00:00:23;;;;;;;11.20;7.07;;;20.20;39.30;;;;;;5075308;28;20024;-75
2020/12/08 00:02:52;;;;;;;12.27;7.63;;;20.20;39.30;;;;;;5061141;28;20559;-75
2020/12/08 00:05:20;;;;;;;12.57;7.90;;;20.20;39.90;;;;;;5064095;28;20046;-75
2020/12/08 00:07:47;;;;;;;14.82;7.97;;;20.20;39.90;;;;;;5075820;28;20040;-75
2020/12/08 00:10:18;;;;;;;11.52;7.13;;;20.10;39.20;;;;;;5092570;28;20526;-74
2020/12/08 00:12:43;;;;;;;12.52;7.88;;;20.10;39.20;;;;;;5027667;28;20037;-75
2020/12/08 00:15:09;;;;;;;13.43;8.38;;;20.10;39.10;;;;;;5062698;28;20028;-75
2020/12/08 00:17:34;;;;;;;12.88;8.15;;;20.10;39.10;;;;;;5043057;28;20028;-75
2020/12/08 00:20:00;;;;;;;15.27;7.72;;;20.10;39.00;;;;;;5042836;28;20036;-75
2020/12/08 00:22:25;;;;;;;15.68;7.40;;;20.10;39.00;;;;;;5066025;28;20143;-74
2020/12/08 00:24:51;;;;;;;12.27;7.50;;;20.10;39.10;;;;;;5059676;28;20388;-75
2020/12/08 00:27:16;;;;;;;11.80;7.45;;;20.10;39.00;;;;;;5053563;28;20110;-75
2020/12/08 00:29:51;;;;;;;11.52;6.97;;;20.10;39.00;;;;;;5040267;28;20086;-75
2020/12/08 00:32:17;;;;;;;13.55;6.55;;;20.10;39.00;;;;;;5038504;28;20028;-75
2020/12/08 00:34:42;;;;;;;11.43;7.25;;;20.10;39.00;;;;;;5068328;28;20029;-75
2020/12/08 00:37:08;;;;;;;11.95;7.95;;;20.10;39.00;;;;;;5051142;28;20024;-76
2020/12/08 00:39:33;;;;;;;12.45;7.95;;;20.00;39.00;;;;;;5047309;28;20064;-76
2020/12/08 00:41:59;;;;;;;13.60;8.60;;;20.00;39.00;;;;;;5040331;28;20132;-76
2020/12/08 00:44:25;;;;;;;12.57;7.20;;;20.00;39.00;;;;;;5071544;28;20028;-75
2020/12/08 00:46:50;;;;;;;12.95;7.75;;;20.00;39.00;;;;;;5011600;28;20036;-75
2020/12/08 00:49:16;;;;;;;14.98;7.85;;;20.00;39.00;;;;;;5049869;28;20540;-76
2020/12/08 00:51:42;;;;;;;12.63;7.32;;;20.00;39.00;;;;;;5020722;28;20116;-75
2020/12/08 00:54:07;;;;;;;10.63;7.15;;;20.00;39.00;;;;;;5014242;28;20067;-76
2020/12/08 00:56:33;;;;;;;8.52;5.63;;;20.00;39.00;;;;;;5035299;28;20028;-75
2020/12/08 00:58:58;;;;;;;11.07;6.60;;;20.00;39.00;;;;;;5036785;28;20041;-75
2020/12/08 01:01:42;;;;;;;10.95;6.65;;;20.00;39.00;;;;;;5051597;28;20170;-75
2020/12/08 01:04:08;;;;;;;12.40;6.85;;;19.90;38.90;;;;;;5059590;28;20060;-75
2020/12/08 01:06:36;;;;;;;12.50;7.05;;;19.90;39.00;;;;;;5034376;28;20028;-75
2020/12/08 01:09:02;;;;;;;10.57;6.78;;;19.90;39.60;;;;;;5015297;28;20036;-76
2020/12/08 01:11:28;;;;;;;12.20;7.18;;;19.90;39.00;;;;;;5012644;28;20044;-75
2020/12/08 01:14:12;;;;;;;10.68;6.32;;;19.90;39.00;;;;;;5023569;28;20571;-75
2020/12/08 01:16:44;;;;;;;11.20;7.07;;;19.90;39.00;;;;;;5036014;28;20064;-75
2020/12/08 01:19:10;;;;;;;10.93;5.90;;;19.80;38.90;;;;;;5033092;28;20075;-75
2020/12/08 01:21:35;;;;;;;10.13;6.20;;;19.80;39.00;;;;;;5056022;28;20512;-74
2020/12/08 01:24:01;;;;;;;8.38;5.10;;;19.80;39.00;;;;;;5040808;28;20044;-74
2020/12/08 01:26:27;;;;;;;10.82;6.45;;;19.80;39.00;;;;;;5034505;28;20021;-75
2020/12/08 01:28:53;;;;;;;11.95;6.88;;;19.80;39.00;;;;;;5015895;28;20404;-75
2020/12/08 01:31:18;;;;;;;14.30;6.13;;;19.80;39.00;;;;;;5024278;28;20041;-75
2020/12/08 01:33:44;;;;;;;9.80;5.95;;;19.70;39.00;;;;;;5059190;28;20103;-75
2020/12/08 01:36:09;;;;;;;9.98;5.45;;;19.70;39.00;;;;;;5042810;28;20393;-75
2020/12/08 01:38:35;;;;;;;9.93;5.40;;;19.70;39.00;;;;;;5000250;28;20045;-75
2020/12/08 01:41:01;;;;;;;9.55;6.70;;;19.70;39.00;;;;;;5005257;28;20516;-74
2020/12/08 01:43:26;;;;;;;12.50;6.50;;;19.70;39.10;;;;;;5032192;28;20056;-75
2020/12/08 01:45:55;;;;;;;9.38;6.18;;;19.70;39.00;;;;;;5030434;28;20017;-74
2020/12/08 01:48:21;;;;;;;7.88;4.57;;;19.70;39.10;;;;;;5015141;28;20040;-75
2020/12/08 01:50:47;;;;;;;12.45;6.63;;;19.70;39.10;;;;;;5026440;28;20036;-75
2020/12/08 01:53:12;;;;;;;10.55;6.88;;;19.70;39.00;;;;;;5006581;28;20500;-75
2020/12/08 01:55:38;;;;;;;9.98;6.22;;;19.70;39.10;;;;;;5044505;28;20037;-74
2020/12/08 01:58:23;;;;;;;10.82;6.53;;;19.60;39.00;;;;;;5002488;28;20080;-74
2020/12/08 02:00:48;;;;;;;10.20;6.63;;;19.70;39.00;;;;;;5040064;28;20035;-75
2020/12/08 02:03:17;;;;;;;12.43;7.05;;;19.60;39.00;;;;;;5037476;28;20501;-75
2020/12/08 02:05:43;;;;;;;11.38;6.72;;;19.60;38.90;;;;;;5013289;28;20032;-73
2020/12/08 02:08:09;;;;;;;12.55;6.65;;;19.70;39.00;;;;;;5027216;28;20032;-74
2020/12/08 02:10:37;;;;;;;11.20;6.90;;;19.70;39.00;;;;;;5034664;28;20033;-74
2020/12/08 02:13:07;;;;;;;11.68;6.32;;;19.70;38.90;;;;;;5035200;28;20497;-74
2020/12/08 02:15:33;;;;;;;14.50;7.43;;;19.70;39.00;;;;;;5021072;28;20129;-74
2020/12/08 02:17:58;;;;;;;9.77;5.85;;;19.70;38.90;;;;;;5018578;28;21914;-74
2020/12/08 02:20:25;;;;;;;11.20;6.05;;;19.60;38.90;;;;;;5035391;28;20389;-74
2020/12/08 02:22:57;;;;;;;10.45;6.30;;;19.60;38.80;;;;;;5037572;28;20072;-74
2020/12/08 02:25:24;;;;;;;11.57;6.13;;;19.60;38.80;;;;;;5048329;28;20123;-73
2020/12/08 02:27:50;;;;;;;8.75;5.68;;;19.60;38.90;;;;;;5029434;28;20422;-73
2020/12/08 02:30:15;;;;;;;12.18;6.50;;;19.60;38.90;;;;;;5019462;28;20025;-73
2020/12/08 02:32:41;;;;;;;10.80;6.07;;;19.60;38.90;;;;;;5043687;28;20063;-73
2020/12/08 02:35:06;;;;;;;10.48;6.15;;;19.60;38.90;;;;;;5035577;28;20028;-75
2020/12/08 02:37:33;;;;;;;12.13;6.88;;;19.60;38.90;;;;;;5024695;28;20072;-74
2020/12/08 02:39:59;;;;;;;10.95;6.53;;;19.60;39.00;;;;;;5050582;28;20055;-74
2020/12/08 02:42:24;;;;;;;9.65;5.80;;;19.60;38.90;;;;;;5044329;28;20445;-75
2020/12/08 02:44:50;;;;;;;12.88;6.50;;;19.60;39.00;;;;;;5046961;28;20025;-76
2020/12/08 02:47:15;;;;;;;11.90;6.80;;;19.60;39.00;;;;;;5042082;28;20032;-77
2020/12/08 02:49:41;;;;;;;10.52;6.38;;;19.60;39.00;;;;;;5059375;28;20519;-75
2020/12/08 02:52:07;;;;;;;11.80;6.47;;;19.60;39.00;;;;;;5056451;28;20507;-77
2020/12/08 02:54:33;;;;;;;11.93;5.75;;;19.50;38.90;;;;;;5033952;28;20052;-76
2020/12/08 02:57:02;;;;;;;11.18;6.18;;;19.50;39.00;;;;;;5034371;28;20055;-76
2020/12/08 02:59:28;;;;;;;12.00;7.10;;;19.50;39.00;;;;;;5041666;28;20051;-76
2020/12/08 03:01:55;;;;;;;12.00;5.88;;;19.50;39.00;;;;;;5026506;28;20024;-75
2020/12/08 03:04:21;;;;;;;10.05;4.95;;;19.50;39.00;;;;;;5033386;28;20018;-75
2020/12/08 03:06:46;;;;;;;11.70;6.20;;;19.50;39.00;;;;;;5050068;28;20037;-74
2020/12/08 03:09:18;;;;;;;13.80;6.43;;;19.50;39.10;;;;;;5051548;28;20040;-75
2020/12/08 03:11:43;;;;;;;7.18;4.05;;;19.50;39.10;;;;;;5046440;28;20041;-75
2020/12/08 03:14:09;;;;;;;6.40;3.80;;;19.40;39.10;;;;;;5033903;28;20052;-75
2020/12/08 03:16:35;;;;;;;0.05;0.05;;;19.50;39.10;;;;;;5050916;28;20392;-75
2020/12/08 03:19:00;;;;;;;0.40;0.40;;;19.50;39.10;;;;;;5033923;28;20408;-75
2020/12/08 03:21:35;;;;;;;0.17;0.13;;;19.40;39.10;;;;;;5025766;28;20064;-75
2020/12/08 03:24:01;;;;;;;0.32;0.32;;;19.40;39.00;;;;;;5025947;28;20045;-75
2020/12/08 03:26:27;;;;;;;1.00;0.28;;;19.40;39.00;;;;;;5046054;28;20028;-75
2020/12/08 03:28:52;;;;;;;0.60;0.57;;;19.40;39.10;;;;;;5033737;28;20407;-75
2020/12/08 03:31:18;;;;;;;3.63;0.75;;;19.40;39.10;;;;;;5052475;28;20031;-76
2020/12/08 03:33:44;;;;;;;0.10;0.03;;;19.40;39.00;;;;;;5039899;28;20527;-76
2020/12/08 03:36:13;;;;;;;0.00;0.00;;;19.40;39.00;;;;;;5028842;28;20033;-76
2020/12/08 03:38:41;;;;;;;0.25;0.25;;;19.40;39.10;;;;;;5034007;28;20037;-76
2020/12/08 03:41:06;;;;;;;0.93;0.30;;;19.40;39.00;;;;;;5013469;28;20041;-76
2020/12/08 03:43:32;;;;;;;0.00;0.00;;;19.40;39.00;;;;;;5052941;28;20473;-76
2020/12/08 03:45:57;;;;;;;0.45;0.45;;;19.40;39.00;;;;;;5050878;28;20029;-76
2020/12/08 03:48:23;;;;;;;1.17;0.45;;;19.30;38.90;;;;;;5039456;28;20507;-76
2020/12/08 03:50:48;;;;;;;1.10;0.45;;;19.40;39.00;;;;;;5040647;28;20029;-76
2020/12/08 03:53:14;;;;;;;0.05;0.05;;;19.40;38.90;;;;;;5041741;28;20112;-76
2020/12/08 03:55:41;;;;;;;0.30;0.30;;;19.40;39.00;;;;;;5026923;28;20047;-75
2020/12/08 03:58:07;;;;;;;3.90;0.52;;;19.40;38.90;;;;;;5031536;28;20045;-75
2020/12/08 04:00:32;;;;;;;0.35;0.20;;;19.40;38.90;;;;;;5035378;28;20105;-75
2020/12/08 04:02:58;;;;;;;0.30;0.30;;;19.30;38.90;;;;;;5043180;28;20115;-75
2020/12/08 04:05:24;;;;;;;0.20;0.20;;;19.30;38.80;;;;;;5042852;28;20116;-75
2020/12/08 04:07:49;;;;;;;0.08;0.08;;;19.30;38.80;;;;;;5044255;28;20029;-75
2020/12/08 04:10:15;;;;;;;2.80;0.40;;;19.30;38.80;;;;;;5046850;28;20539;-75
2020/12/08 04:12:40;;;;;;;0.10;0.10;;;19.30;38.80;;;;;;5040421;28;20072;-74
2020/12/08 04:15:06;;;;;;;0.10;0.10;;;19.30;38.90;;;;;;5048778;28;20174;-74
2020/12/08 04:17:31;;;;;;;0.30;0.13;;;19.30;38.90;;;;;;5053375;28;20107;-74
2020/12/08 04:19:57;;;;;;;0.38;0.22;;;19.30;38.90;;;;;;5059708;28;20068;-75
2020/12/08 04:22:22;;;;;;;0.10;0.10;;;19.30;38.90;;;;;;5031209;28;20049;-76
2020/12/08 04:24:48;;;;;;;0.20;0.20;;;19.20;38.80;;;;;;5049697;28;20070;-75
2020/12/08 04:27:13;;;;;;;0.28;0.28;;;19.20;38.80;;;;;;5029095;28;20053;-75
2020/12/08 04:29:39;;;;;;;0.20;0.20;;;19.20;38.80;;;;;;5022721;28;20042;-76
2020/12/08 04:32:05;;;;;;;0.30;0.30;;;19.20;38.80;;;;;;5046166;28;20094;-75
2020/12/08 04:34:31;;;;;;;0.47;0.47;;;19.20;38.70;;;;;;5036039;28;20028;-75
2020/12/08 04:37:00;;;;;;;0.10;0.10;;;19.30;38.80;;;;;;5040771;28;20033;-76
2020/12/08 04:39:26;;;;;;;0.10;0.10;;;19.20;38.70;;;;;;5031943;28;20025;-75
2020/12/08 04:41:53;;;;;;;0.17;0.17;;;19.20;38.70;;;;;;5001330;28;20565;-73
2020/12/08 04:44:19;;;;;;;2.45;0.95;;;19.20;38.70;;;;;;5017658;28;20033;-75
2020/12/08 04:46:44;;;;;;;0.00;0.00;;;19.20;38.80;;;;;;5029598;28;20439;-75
2020/12/08 04:49:10;;;;;;;1.05;0.50;;;19.20;38.70;;;;;;5034949;28;20460;-75
2020/12/08 04:51:39;;;;;;;0.28;0.25;;;19.20;38.70;;;;;;5046179;28;20033;-75
2020/12/08 04:54:05;;;;;;;0.00;0.00;;;19.20;38.70;;;;;;5039537;28;20044;-76
2020/12/08 04:56:30;;;;;;;0.30;0.22;;;19.20;38.70;;;;;;5041408;28;20033;-75
2020/12/08 04:59:18;;;;;;;0.52;0.32;;;19.20;38.70;;;;;;5055457;28;20052;-75
2020/12/08 05:01:44;;;;;;;0.28;0.22;;;19.10;38.70;;;;;;5059165;28;20511;-75
2020/12/08 05:04:09;;;;;;;0.73;0.45;;;19.10;38.80;;;;;;5019294;28;20033;-75
2020/12/08 05:06:35;;;;;;;0.10;0.10;;;19.10;38.80;;;;;;5028186;28;20033;-75
2020/12/08 05:09:05;;;;;;;0.20;0.20;;;19.10;38.90;;;;;;5032370;28;20484;-75
2020/12/08 05:11:30;;;;;;;0.05;0.05;;;19.20;38.90;;;;;;5055367;28;20077;-75
2020/12/08 05:14:06;;;;;;;0.52;0.30;;;19.20;38.90;;;;;;5055864;28;20111;-75
2020/12/08 05:16:35;;;;;;;;;;;19.20;38.70;;;;;;5033320;28;20444;-75
2020/12/08 05:19:09;;;;;;;0.00;0.00;;;19.30;38.70;;;;;;5058074;28;19908;-75
2020/12/08 05:21:48;;;;;;;0.00;0.00;;;19.40;38.60;;;;;;5046907;28;20549;-75
2020/12/08 05:24:25;;;;;;;0.00;0.00;;;19.50;38.40;;;;;;5022296;28;20041;-75
2020/12/08 05:26:55;;;;;;;24.05;0.57;;;19.60;38.30;;;;;;5038435;28;20016;-75
2020/12/08 05:29:21;;;;;;;0.10;0.10;;;19.70;38.10;;;;;;5048827;28;20388;-75
2020/12/08 05:31:46;;;;;;;0.45;0.45;;;19.70;38.00;;;;;;5037560;28;20036;-75
2020/12/08 05:34:12;;;;;;;0.68;0.35;;;19.80;38.00;;;;;;5039021;28;20026;-75
2020/12/08 05:36:38;;;;;;;0.52;0.17;;;19.90;37.90;;;;;;5037615;28;20021;-75
2020/12/08 05:39:03;;;;;;;0.50;0.25;;;19.90;37.80;;;;;;5007324;28;20029;-75
2020/12/08 05:41:30;;;;;;;0.00;0.00;;;20.00;37.60;;;;;;5048832;28;20028;-76
2020/12/08 05:44:03;;;;;;;0.10;0.10;;;20.00;37.60;;;;;;5023446;28;20111;-76
2020/12/08 05:46:29;;;;;;;0.73;0.68;;;20.10;37.50;;;;;;5021244;28;20558;-76
2020/12/08 05:48:58;;;;;;;0.20;0.20;;;20.10;37.40;;;;;;5022335;28;20029;-76
2020/12/08 05:51:24;;;;;;;0.15;0.15;;;20.10;37.30;;;;;;5034880;28;20040;-76
2020/12/08 05:53:55;;;;;;;0.52;0.20;;;20.20;37.40;;;;;;5015550;28;20041;-76
2020/12/08 05:56:20;;;;;;;0.52;0.52;;;20.20;37.30;;;;;;5034950;28;20044;-76
2020/12/08 05:58:53;;;;;;;0.00;0.00;;;20.20;37.20;;;;;;5034774;28;20033;-74
2020/12/08 06:01:19;;;;;;;0.32;0.32;;;20.20;37.20;;;;;;5019791;28;20021;-75
2020/12/08 06:04:22;;;;;;;0.00;0.00;;;20.20;37.20;;;;;;5035848;28;20028;-75
2020/12/08 06:06:52;;;;;;;0.28;0.28;;;20.30;37.20;;;;;;5047356;28;20121;-75
2020/12/08 06:09:30;;;;;;;0.28;0.28;;;20.30;37.20;;;;;;5028443;28;20579;-75
2020/12/08 06:11:55;;;;;;;0.10;0.10;;;20.30;37.30;;;;;;5054405;28;20033;-75
2020/12/08 06:14:31;;;;;;;0.45;0.45;;;20.20;37.20;;;;;;5034387;28;20040;-75
2020/12/08 06:17:00;;;;;;;;;;;20.30;37.30;;;;;;5055902;28;20025;-75
2020/12/08 06:19:29;;;;;;;0.00;0.00;;;20.30;37.30;;;;;;5051173;28;19908;-76
2020/12/08 06:21:55;;;;;;;0.22;0.22;;;20.30;37.30;;;;;;5032630;28;20056;-75
2020/12/08 06:24:20;;;;;;;0.30;0.30;;;20.30;37.30;;;;;;5032713;28;20565;-75
2020/12/08 06:26:46;;;;;;;1.35;0.30;;;20.30;37.40;;;;;;5019294;28;20071;-74
2020/12/08 06:29:11;;;;;;;0.00;0.00;;;20.30;37.30;;;;;;5002348;28;20104;-74
2020/12/08 06:31:44;;;;;;;0.00;0.00;;;20.30;37.30;;;;;;5033698;28;20408;-74
2020/12/08 06:34:10;;;;;;;3.00;0.35;;;20.30;37.40;;;;;;5024328;28;20060;-72
2020/12/08 06:36:39;;;;;;;0.38;0.38;;;20.30;37.30;;;;;;5039759;28;20093;-74
2020/12/08 06:39:06;;;;;;;0.00;0.00;;;20.30;37.40;;;;;;5064267;28;20519;-74
2020/12/08 06:41:33;;;;;;;0.05;0.05;;;20.30;37.40;;;;;;5041671;28;20396;-75
2020/12/08 06:44:23;;;;;;;0.00;0.00;;;20.30;37.40;;;;;;5025888;28;20116;-73
2020/12/08 06:47:00;;;;;;;0.22;0.22;;;20.30;37.40;;;;;;4965023;28;20495;-74
2020/12/08 06:49:26;;;;;;;0.03;0.03;;;20.30;37.30;;;;;;4972587;28;20031;-74
2020/12/08 06:51:58;;;;;;;1.90;1.13;;;20.40;37.40;;;;;;4940653;28;20074;-74
2020/12/08 06:54:24;;;;;;;0.00;0.00;;;20.30;37.40;;;;;;4966107;28;20077;-74
2020/12/08 06:56:50;;;;;;;0.63;0.50;;;20.40;37.40;;;;;;4969594;28;20153;-73
2020/12/08 06:59:24;;;;;;;0.00;0.00;;;20.40;37.30;;;;;;4952149;28;20109;-73
2020/12/08 07:01:51;;;;;;;0.55;0.55;;;20.40;37.30;;;;;;4954247;28;20423;-74
2020/12/08 07:04:17;;;;;;;0.00;0.00;;;20.30;37.30;;;;;;4967990;28;20035;-74
2020/12/08 07:06:43;;;;;;;0.20;0.20;;;20.40;37.40;;;;;;4966891;28;20514;-75
2020/12/08 07:09:08;;;;;;;0.88;0.32;;;20.40;37.30;;;;;;4967141;28;20035;-74
2020/12/08 07:11:34;;;;;;;0.00;0.00;;;20.40;37.30;;;;;;4954908;28;20051;-75
2020/12/08 07:14:04;;;;;;;0.00;0.00;;;20.40;37.40;;;;;;4970190;28;20567;-74
2020/12/08 07:16:30;;;;;;;0.45;0.17;;;20.40;37.30;;;;;;4953729;28;20085;-74
2020/12/08 07:18:56;;;;;;;0.10;0.08;;;20.40;37.30;;;;;;4945722;28;20074;-74
2020/12/08 07:21:22;;;;;;;0.10;0.10;;;20.40;37.30;;;;;;4965166;28;20458;-74
2020/12/08 07:23:51;;;;;;;0.00;0.00;;;20.30;37.30;;;;;;5010038;28;20044;-73
2020/12/08 07:26:16;;;;;;;0.10;0.10;;;20.40;37.40;;;;;;5033066;28;20939;-74
2020/12/08 07:28:42;;;;;;;0.15;0.15;;;20.40;37.40;;;;;;5020968;28;20037;-73
2020/12/08 07:31:21;;;;;;;0.30;0.30;;;20.40;37.40;;;;;;5064779;28;20061;-72
2020/12/08 07:33:47;;;;;;;0.00;0.00;;;20.40;37.40;;;;;;5041298;28;20030;-72
2020/12/08 07:36:39;;;;;;;0.35;0.30;;;20.40;37.50;;;;;;5040329;28;20112;-72
2020/12/08 07:39:04;;;;;;;1.48;0.68;;;20.40;37.40;;;;;;5034413;28;20041;-73
2020/12/08 07:41:30;;;;;;;0.30;0.22;;;20.40;37.40;;;;;;5038230;28;20029;-73
2020/12/08 07:43:57;;;;;;;1.17;0.10;;;20.40;37.30;;;;;;5007441;28;20032;-73
2020/12/08 07:46:30;;;;;;;0.00;0.00;;;20.40;38.00;;;;;;5035987;28;20496;-72
2020/12/08 07:49:07;;;;;;;1.23;0.22;;;20.40;37.30;;;;;;5014328;28;20061;-72
2020/12/08 07:51:33;;;;;;;0.55;0.15;;;20.40;37.30;;;;;;5018254;28;20079;-72
2020/12/08 07:54:00;;;;;;;0.00;0.00;;;20.40;37.20;;;;;;5037359;28;20037;-72
2020/12/08 07:56:36;;;;;;;4.28;0.40;;;20.50;37.40;;;;;;5030544;28;20558;-73
2020/12/08 07:59:02;;;;;;;0.45;0.30;;;20.50;37.20;;;;;;5030384;28;20049;-76
2020/12/08 08:01:27;;;;;;;0.15;0.15;;;20.50;37.20;;;;;;5044121;28;20246;-76
2020/12/08 08:03:53;;;;;;;1.50;1.08;;;20.50;37.20;;;;;;5046103;28;20143;-74
2020/12/08 08:06:23;;;;;;;0.30;0.30;;;20.50;37.20;;;;;;5038065;28;20052;-75
2020/12/08 08:08:49;;;;;;;0.35;0.35;;;20.50;37.10;;;;;;5043159;28;20018;-75
2020/12/08 08:11:15;;;;;;;0.00;0.00;;;20.50;37.10;;;;;;5055979;28;20040;-75
2020/12/08 08:13:41;;;;;;;0.30;0.30;;;20.50;37.10;;;;;;5070721;28;20096;-75
2020/12/08 08:16:13;;;;;;;0.10;0.10;;;20.50;37.20;;;;;;5025745;28;20101;-74
2020/12/08 08:18:39;;;;;;;0.00;0.00;;;20.50;37.10;;;;;;5008010;28;20037;-75
2020/12/08 08:21:04;;;;;;;0.05;0.05;;;20.50;37.80;;;;;;5024733;28;20059;-74
2020/12/08 08:23:30;;;;;;;2.20;0.55;;;20.50;37.20;;;;;;5029158;28;20418;-74
2020/12/08 08:25:56;;;;;;;0.43;0.43;;;20.50;37.10;;;;;;5042865;28;20114;-74
2020/12/08 08:28:22;;;;;;;0.10;0.10;;;20.50;37.20;;;;;;5038584;28;20021;-73
2020/12/08 08:30:48;;;;;;;0.00;0.00;;;20.60;37.10;;;;;;5041721;28;20043;-73
2020/12/08 08:33:14;;;;;;;0.98;0.35;;;20.50;37.10;;;;;;5043818;28;20480;-72
2020/12/08 08:35:39;;;;;;;0.17;0.17;;;20.50;37.10;;;;;;5027157;28;20032;-72
2020/12/08 08:38:05;;;;;;;0.08;0.08;;;20.50;37.10;;;;;;5060293;28;20025;-72
2020/12/08 08:40:32;;;;;;;0.30;0.30;;;20.60;37.10;;;;;;5059956;28;20499;-71
2020/12/08 08:42:58;;;;;;;0.15;0.15;;;20.60;37.00;;;;;;5044208;28;20075;-71
2020/12/08 08:45:23;;;;;;;0.20;0.20;;;20.70;36.90;;;;;;5037577;28;20025;-73
2020/12/08 08:47:49;;;;;;;0.30;0.30;;;20.70;36.90;;;;;;5055146;28;20028;-74
2020/12/08 08:50:16;;;;;;;0.20;0.20;;;20.70;36.80;;;;;;5042025;28;20053;-75
2020/12/08 08:52:41;;;;;;;6.32;1.58;;;20.80;36.80;;;;;;5071711;28;20083;-72
2020/12/08 08:55:10;;;;;;;0.00;0.00;;;20.80;36.80;;;;;;5070628;28;20037;-72
2020/12/08 08:57:39;;;;;;;0.65;0.10;;;20.80;36.80;;;;;;5031065;28;20033;-71
2020/12/08 09:00:06;;;;;;;0.20;0.20;;;20.80;36.60;;;;;;5018156;28;20033;-71
2020/12/08 09:02:32;;;;;;;0.00;0.00;;;20.80;36.50;;;;;;5039501;28;20033;-72
2020/12/08 09:04:57;;;;;;;0.25;0.25;;;20.80;36.30;;;;;;5058529;28;20017;-72
2020/12/08 09:07:25;;;;;;;0.40;0.32;;;20.80;36.20;;;;;;5040040;28;20045;-74
2020/12/08 09:09:50;;;;;;;0.60;0.30;;;20.80;36.00;;;;;;5062785;28;20056;-72
2020/12/08 09:12:16;;;;;;;0.47;0.47;;;20.80;35.90;;;;;;5044692;28;20085;-74
2020/12/08 09:14:42;;;;;;;0.08;0.08;;;20.80;35.80;;;;;;5054482;28;20110;-76
2020/12/08 09:17:07;;;;;;;0.88;0.75;;;20.80;35.80;;;;;;5071143;28;20081;-76
2020/12/08 09:19:33;;;;;;;0.22;0.13;;;20.80;35.80;;;;;;5034626;28;20044;-77
2020/12/08 09:21:58;;;;;;;1.85;0.57;;;20.80;35.70;;;;;;5068201;28;20065;-76
2020/12/08 09:24:24;;;;;;;0.45;0.45;;;20.80;35.70;;;;;;5068349;28;20031;-77
2020/12/08 09:26:49;;;;;;;0.10;0.10;;;20.80;35.90;;;;;;5051984;28;20040;-77
2020/12/08 09:29:15;;;;;;;0.30;0.30;;;20.80;36.20;;;;;;5052454;28;20071;-76
2020/12/08 09:31:41;;;;;;;0.15;0.15;;;20.80;36.30;;;;;;5065351;28;20044;-77
2020/12/08 09:34:07;;;;;;;0.20;0.20;;;20.80;36.50;;;;;;5038177;28;20034;-76
2020/12/08 09:36:32;;;;;;;0.10;0.10;;;20.80;36.60;;;;;;5043727;28;20036;-77
2020/12/08 09:38:58;;;;;;;0.20;0.20;;;20.80;36.80;;;;;;5028160;28;20044;-76
2020/12/08 09:41:24;;;;;;;0.10;0.10;;;20.80;37.50;;;;;;5044161;28;20040;-76
2020/12/08 09:43:50;;;;;;;0.20;0.20;;;20.80;36.80;;;;;;5044053;28;20052;-76
2020/12/08 09:46:16;;;;;;;0.20;0.20;;;20.80;36.80;;;;;;5036836;28;20063;-75
2020/12/08 09:48:42;;;;;;;0.32;0.32;;;20.80;36.80;;;;;;5045605;28;20599;-76
2020/12/08 09:51:07;;;;;;;0.05;0.05;;;20.80;36.80;;;;;;5046086;28;20036;-76
2020/12/08 09:53:33;;;;;;;1.80;0.22;;;20.90;36.70;;;;;;5042227;28;20042;-75
2020/12/08 09:55:59;;;;;;;0.38;0.38;;;20.90;36.70;;;;;;5053284;28;20068;-76
2020/12/08 09:58:24;;;;;;;0.17;0.17;;;21.00;36.60;;;;;;5026749;28;20104;-75
2020/12/08 10:04:12;;;;;;;1.55;0.95;;;21.00;36.30;;;;;;5048939;28;20028;-76
2020/12/08 10:06:37;;;;;;;0.57;0.57;;;21.00;36.20;;;;;;5058917;28;20396;-75
2020/12/08 10:09:09;;;;;;;0.43;0.43;;;21.10;36.10;;;;;;5044445;28;20033;-75
2020/12/08 10:11:36;;;;;;;0.35;0.30;;;21.10;36.00;;;;;;5034240;28;20117;-76
2020/12/08 10:14:01;;;;;;;0.17;0.15;;;21.10;35.90;;;;;;5037406;28;20071;-74
2020/12/08 10:16:27;;;;;;;0.80;0.80;;;21.20;35.80;;;;;;5064075;28;20392;-76
2020/12/08 10:18:53;;;;;;;1.85;1.35;;;21.20;35.70;;;;;;5051369;28;20116;-76
2020/12/08 10:21:22;;;;;;;3.90;1.08;;;21.20;35.70;;;;;;5057532;28;20073;-77
2020/12/08 10:23:49;;;;;;;1.42;0.30;;;21.20;35.70;;;;;;5053592;28;20100;-77
2020/12/08 10:26:14;;;;;;;0.55;0.47;;;21.30;35.60;;;;;;5011062;28;20033;-76
2020/12/08 10:28:40;;;;;;;3.03;0.75;;;21.30;35.50;;;;;;5046365;28;20089;-76
2020/12/08 10:31:05;;;;;;;3.65;0.98;;;21.30;35.40;;;;;;5064865;28;20031;-73
2020/12/08 10:33:31;;;;;;;1.73;0.98;;;21.40;35.40;;;;;;5061529;28;20040;-76
2020/12/08 10:35:57;;;;;;;1.60;0.73;;;21.30;35.30;;;;;;5031894;28;20092;-73
2020/12/08 10:38:24;;;;;;;1.05;0.52;;;21.30;35.20;;;;;;5017807;28;20032;-75
2020/12/08 10:40:49;;;;;;;1.25;0.60;;;21.40;35.20;;;;;;5047203;28;20061;-77
2020/12/08 10:43:15;;;;;;;2.15;1.00;;;21.40;35.20;;;;;;5045239;28;20079;-77
2020/12/08 10:45:40;;;;;;;0.28;0.28;;;21.40;35.30;;;;;;5031685;28;20440;-77
2020/12/08 10:48:06;;;;;;;1.67;0.70;;;21.40;35.40;;;;;;5024179;28;20095;-77
2020/12/08 10:50:32;;;;;;;2.42;1.58;;;21.30;35.30;;;;;;5025870;28;20041;-78
2020/12/08 10:52:57;;;;;;;0.98;0.73;;;21.30;35.50;;;;;;5034030;28;20068;-78
2020/12/08 10:55:23;;;;;;;1.98;1.10;;;21.30;35.50;;;;;;5016190;28;20155;-77
2020/12/08 10:57:48;;;;;;;0.68;0.68;;;21.30;35.60;;;;;;5053357;28;20013;-77
2020/12/08 11:00:14;;;;;;;1.50;0.60;;;21.30;35.60;;;;;;5035482;28;20095;-78
2020/12/08 11:02:39;;;;;;;2.40;0.80;;;21.30;35.60;;;;;;5030474;28;20397;-72
2020/12/08 11:05:07;;;;;;;1.00;0.95;;;21.40;35.70;;;;;;5033928;28;20037;-73
2020/12/08 11:07:33;;;;;;;0.88;0.60;;;21.40;35.70;;;;;;5036782;28;20105;-73
2020/12/08 11:09:59;;;;;;;0.30;0.30;;;21.40;35.70;;;;;;5023540;28;20033;-78
2020/12/08 11:12:24;;;;;;;1.48;0.75;;;21.40;35.70;;;;;;5032469;28;20024;-78
2020/12/08 11:14:50;;;;;;;0.65;0.32;;;21.30;35.70;;;;;;5025427;28;20493;-78
2020/12/08 11:17:17;;;;;;;1.27;1.08;;;21.30;35.70;;;;;;5030189;28;20025;-79
2020/12/08 11:19:42;;;;;;;0.05;0.03;;;21.30;35.70;;;;;;5031147;28;20074;-73
2020/12/08 11:22:08;;;;;;;0.90;0.90;;;21.40;35.80;;;;;;5039616;28;20057;-73
2020/12/08 11:24:34;;;;;;;1.63;0.57;;;21.30;35.70;;;;;;5048423;28;20025;-73
2020/12/08 11:26:59;;;;;;;3.10;1.75;;;21.30;35.70;;;;;;5032335;28;20105;-73
2020/12/08 11:29:25;;;;;;;0.57;0.57;;;21.30;35.80;;;;;;5039362;28;20432;-72
2020/12/08 11:31:52;;;;;;;0.90;0.82;;;21.30;35.90;;;;;;5049969;28;20056;-73
2020/12/08 11:34:18;;;;;;;0.10;0.10;;;21.30;35.90;;;;;;5022980;28;20552;-73
2020/12/08 11:36:44;;;;;;;1.65;1.20;;;21.30;35.90;;;;;;5015471;28;20056;-73
2020/12/08 11:39:09;;;;;;;0.45;0.45;;;21.30;36.00;;;;;;5031347;28;20065;-74
2020/12/08 11:41:40;;;;;;;1.38;0.65;;;21.30;35.90;;;;;;5017141;28;20037;-73
2020/12/08 11:44:12;;;;;;;1.25;0.85;;;21.30;35.90;;;;;;5034599;28;20024;-73
2020/12/08 11:46:38;;;;;;;0.77;0.77;;;21.40;36.00;;;;;;5045650;28;20515;-73
2020/12/08 11:49:04;;;;;;;0.10;0.10;;;21.40;35.90;;;;;;5036842;28;20029;-74
2020/12/08 11:51:31;;;;;;;1.08;0.90;;;21.40;36.50;;;;;;5043479;28;20025;-73
2020/12/08 11:53:58;;;;;;;0.82;0.82;;;21.40;35.90;;;;;;5042682;28;20404;-73
2020/12/08 11:56:24;;;;;;;0.10;0.10;;;21.40;35.90;;;;;;5042750;28;20013;-73
2020/12/08 11:58:50;;;;;;;0.35;0.20;;;21.30;35.90;;;;;;5037408;28;20040;-73
2020/12/08 12:01:25;;;;;;;0.50;0.50;;;21.40;35.90;;;;;;5056593;28;20029;-73
2020/12/08 12:03:59;;;;;;;0.20;0.20;;;21.40;36.00;;;;;;5044882;28;20041;-73
2020/12/08 12:06:25;;;;;;;2.83;0.47;;;21.30;36.00;;;;;;5058804;28;20067;-73
2020/12/08 12:08:50;;;;;;;0.50;0.50;;;21.30;36.00;;;;;;5037633;28;20040;-73
2020/12/08 12:11:16;;;;;;;0.32;0.20;;;21.40;36.10;;;;;;5037568;28;20041;-73
2020/12/08 12:13:41;;;;;;;1.85;0.32;;;21.30;36.10;;;;;;5041341;28;20393;-73
2020/12/08 12:16:07;;;;;;;0.57;0.52;;;21.30;36.10;;;;;;5041244;28;20037;-73
2020/12/08 12:18:33;;;;;;;0.30;0.30;;;21.30;36.20;;;;;;5055178;28;20725;-73
2020/12/08 12:20:58;;;;;;;2.28;0.88;;;21.30;36.20;;;;;;5055662;28;20396;-73
2020/12/08 12:23:24;;;;;;;0.22;0.22;;;21.30;36.20;;;;;;5037640;28;20036;-73
2020/12/08 12:25:49;;;;;;;0.03;0.03;;;21.20;36.90;;;;;;5014917;28;20020;-73
2020/12/08 12:28:16;;;;;;;0.43;0.20;;;21.20;36.20;;;;;;5055959;28;20486;-73
2020/12/08 12:30:41;;;;;;;0.20;0.17;;;21.20;36.30;;;;;;5015506;28;20135;-72
2020/12/08 12:33:07;;;;;;;0.32;0.30;;;21.20;36.30;;;;;;5037911;28;20136;-73
2020/12/08 12:35:32;;;;;;;0.70;0.15;;;21.10;36.30;;;;;;5033425;28;20036;-72
2020/12/08 12:37:58;;;;;;;0.52;0.52;;;21.10;36.30;;;;;;5059848;28;20111;-73
2020/12/08 12:40:23;;;;;;;0.40;0.40;;;21.10;36.30;;;;;;5018143;28;20060;-73
2020/12/08 12:42:49;;;;;;;3.30;0.38;;;21.20;36.90;;;;;;5018795;28;20512;-73
2020/12/08 12:45:14;;;;;;;0.40;0.40;;;21.20;36.20;;;;;;5022947;28;20495;-73
2020/12/08 12:47:40;;;;;;;0.15;0.15;;;21.20;36.30;;;;;;5046603;28;20040;-73